sensor_id;sensor_type;location;lat;lon;timestamp;P1;durP1;ratioP1;P2;durP2;ratioP2
61785;SDS011;47692;53.714;11.372;2023-03-02T00:01:49;37.95;;;13.38;;
61785;SDS011;47692;53.714;11.372;2023-03-02T00:04:32;33.28;;;11.23;;
61785;SDS011;47692;53.714;11.372;2023-03-02T00:07:05;33.50;;;12.20;;
61785;SDS011;47692;53.714;11.372;2023-03-02T00:09:34;39.05;;;11.20;;
61785;SDS011;47692;53.714;11.372;2023-03-02T00:12:00;36.55;;;11.95;;
61785;SDS011;47692;53.714;11.372;2023-03-02T00:14:26;34.58;;;12.25;;
61785;SDS011;47692;53.714;11.372;2023-03-02T00:16:52;33.50;;;11.43;;
61785;SDS011;47692;53.714;11.372;2023-03-02T00:19:17;38.17;;;11.00;;
61785;SDS011;47692;53.714;11.372;2023-03-02T00:21:42;35.17;;;11.40;;
61785;SDS011;47692;53.714;11.372;2023-03-02T00:24:07;35.13;;;10.13;;
61785;SDS011;47692;53.714;11.372;2023-03-02T00:26:34;36.15;;;12.60;;
61785;SDS011;47692;53.714;11.372;2023-03-02T00:29:00;34.10;;;11.75;;
61785;SDS011;47692;53.714;11.372;2023-03-02T00:31:28;30.33;;;9.63;;
61785;SDS011;47692;53.714;11.372;2023-03-02T00:33:53;28.13;;;10.43;;
61785;SDS011;47692;53.714;11.372;2023-03-02T00:36:19;24.40;;;10.05;;
61785;SDS011;47692;53.714;11.372;2023-03-02T00:38:46;27.55;;;9.70;;
61785;SDS011;47692;53.714;11.372;2023-03-02T00:41:12;27.60;;;10.65;;
61785;SDS011;47692;53.714;11.372;2023-03-02T00:43:39;28.58;;;10.75;;
61785;SDS011;47692;53.714;11.372;2023-03-02T00:46:11;24.23;;;9.30;;
61785;SDS011;47692;53.714;11.372;2023-03-02T00:48:41;28.30;;;10.63;;
61785;SDS011;47692;53.714;11.372;2023-03-02T00:51:07;32.00;;;10.25;;
61785;SDS011;47692;53.714;11.372;2023-03-02T00:53:33;24.25;;;9.40;;
61785;SDS011;47692;53.714;11.372;2023-03-02T00:55:59;24.50;;;8.77;;
61785;SDS011;47692;53.714;11.372;2023-03-02T00:58:26;26.58;;;9.65;;
61785;SDS011;47692;53.714;11.372;2023-03-02T01:00:52;22.75;;;9.60;;
61785;SDS011;47692;53.714;11.372;2023-03-02T01:03:17;32.05;;;8.95;;
61785;SDS011;47692;53.714;11.372;2023-03-02T01:05:43;31.15;;;9.68;;
61785;SDS011;47692;53.714;11.372;2023-03-02T01:08:08;24.38;;;10.27;;
61785;SDS011;47692;53.714;11.372;2023-03-02T01:10:34;25.60;;;8.85;;
61785;SDS011;47692;53.714;11.372;2023-03-02T01:12:59;28.63;;;8.75;;
61785;SDS011;47692;53.714;11.372;2023-03-02T01:15:24;24.77;;;8.70;;
61785;SDS011;47692;53.714;11.372;2023-03-02T01:17:50;27.67;;;9.48;;
61785;SDS011;47692;53.714;11.372;2023-03-02T01:20:15;23.58;;;8.95;;
61785;SDS011;47692;53.714;11.372;2023-03-02T01:22:41;23.73;;;9.52;;
61785;SDS011;47692;53.714;11.372;2023-03-02T01:25:08;26.60;;;9.68;;
61785;SDS011;47692;53.714;11.372;2023-03-02T01:27:34;23.98;;;10.48;;
61785;SDS011;47692;53.714;11.372;2023-03-02T01:29:59;21.55;;;8.80;;
61785;SDS011;47692;53.714;11.372;2023-03-02T01:32:25;26.88;;;9.05;;
61785;SDS011;47692;53.714;11.372;2023-03-02T01:34:50;26.13;;;7.93;;
61785;SDS011;47692;53.714;11.372;2023-03-02T01:37:16;24.42;;;8.57;;
61785;SDS011;47692;53.714;11.372;2023-03-02T01:39:41;20.35;;;7.95;;
61785;SDS011;47692;53.714;11.372;2023-03-02T01:42:06;24.80;;;7.90;;
61785;SDS011;47692;53.714;11.372;2023-03-02T01:44:32;21.23;;;7.15;;
61785;SDS011;47692;53.714;11.372;2023-03-02T01:46:58;21.90;;;7.60;;
61785;SDS011;47692;53.714;11.372;2023-03-02T01:49:24;23.83;;;7.55;;
61785;SDS011;47692;53.714;11.372;2023-03-02T01:51:51;21.73;;;7.65;;
61785;SDS011;47692;53.714;11.372;2023-03-02T01:54:17;19.70;;;6.22;;
61785;SDS011;47692;53.714;11.372;2023-03-02T01:56:48;20.88;;;8.40;;
61785;SDS011;47692;53.714;11.372;2023-03-02T01:59:17;17.80;;;7.20;;
61785;SDS011;47692;53.714;11.372;2023-03-02T02:01:46;21.35;;;7.15;;
61785;SDS011;47692;53.714;11.372;2023-03-02T02:04:21;17.33;;;7.05;;
61785;SDS011;47692;53.714;11.372;2023-03-02T02:06:57;21.42;;;6.97;;
61785;SDS011;47692;53.714;11.372;2023-03-02T02:09:25;21.55;;;8.55;;
61785;SDS011;47692;53.714;11.372;2023-03-02T02:11:52;22.75;;;7.20;;
61785;SDS011;47692;53.714;11.372;2023-03-02T02:14:17;17.65;;;7.03;;
61785;SDS011;47692;53.714;11.372;2023-03-02T02:16:43;18.05;;;7.40;;
61785;SDS011;47692;53.714;11.372;2023-03-02T02:19:23;22.77;;;7.38;;
61785;SDS011;47692;53.714;11.372;2023-03-02T02:22:08;17.08;;;6.40;;
61785;SDS011;47692;53.714;11.372;2023-03-02T02:24:37;18.15;;;5.68;;
61785;SDS011;47692;53.714;11.372;2023-03-02T02:27:06;19.27;;;6.00;;
61785;SDS011;47692;53.714;11.372;2023-03-02T02:29:33;19.63;;;6.70;;
61785;SDS011;47692;53.714;11.372;2023-03-02T02:34:47;17.92;;;6.88;;
61785;SDS011;47692;53.714;11.372;2023-03-02T02:37:22;22.00;;;7.53;;
61785;SDS011;47692;53.714;11.372;2023-03-02T02:39:51;23.13;;;6.30;;
61785;SDS011;47692;53.714;11.372;2023-03-02T02:42:20;26.80;;;8.70;;
61785;SDS011;47692;53.714;11.372;2023-03-02T02:44:52;27.85;;;7.68;;
61785;SDS011;47692;53.714;11.372;2023-03-02T02:47:23;29.55;;;8.15;;
61785;SDS011;47692;53.714;11.372;2023-03-02T02:49:49;28.45;;;7.95;;
61785;SDS011;47692;53.714;11.372;2023-03-02T02:52:18;43.85;;;10.63;;
61785;SDS011;47692;53.714;11.372;2023-03-02T02:54:47;31.30;;;8.77;;
61785;SDS011;47692;53.714;11.372;2023-03-02T02:57:14;24.92;;;9.38;;
61785;SDS011;47692;53.714;11.372;2023-03-02T02:59:42;23.33;;;9.43;;
61785;SDS011;47692;53.714;11.372;2023-03-02T03:02:16;30.52;;;9.02;;
61785;SDS011;47692;53.714;11.372;2023-03-02T03:04:44;46.72;;;10.57;;
61785;SDS011;47692;53.714;11.372;2023-03-02T03:07:12;32.53;;;9.85;;
61785;SDS011;47692;53.714;11.372;2023-03-02T03:09:41;26.90;;;11.48;;
61785;SDS011;47692;53.714;11.372;2023-03-02T03:12:07;26.20;;;10.50;;
61785;SDS011;47692;53.714;11.372;2023-03-02T03:14:40;28.77;;;10.02;;
61785;SDS011;47692;53.714;11.372;2023-03-02T03:17:06;29.23;;;11.88;;
61785;SDS011;47692;53.714;11.372;2023-03-02T03:19:36;26.35;;;10.82;;
61785;SDS011;47692;53.714;11.372;2023-03-02T03:22:02;27.10;;;10.35;;
61785;SDS011;47692;53.714;11.372;2023-03-02T03:24:29;31.55;;;11.32;;
61785;SDS011;47692;53.714;11.372;2023-03-02T03:26:55;32.05;;;12.57;;
61785;SDS011;47692;53.714;11.372;2023-03-02T03:29:22;30.65;;;11.07;;
61785;SDS011;47692;53.714;11.372;2023-03-02T03:31:49;48.63;;;11.27;;
61785;SDS011;47692;53.714;11.372;2023-03-02T03:34:16;26.05;;;9.77;;
61785;SDS011;47692;53.714;11.372;2023-03-02T03:36:41;29.88;;;11.60;;
61785;SDS011;47692;53.714;11.372;2023-03-02T03:39:09;26.52;;;10.70;;
61785;SDS011;47692;53.714;11.372;2023-03-02T03:41:35;28.92;;;11.02;;
61785;SDS011;47692;53.714;11.372;2023-03-02T03:44:01;31.80;;;10.57;;
61785;SDS011;47692;53.714;11.372;2023-03-02T03:46:26;42.92;;;11.40;;
61785;SDS011;47692;53.714;11.372;2023-03-02T03:48:52;28.98;;;11.15;;
61785;SDS011;47692;53.714;11.372;2023-03-02T03:51:17;27.08;;;10.73;;
61785;SDS011;47692;53.714;11.372;2023-03-02T03:53:43;30.15;;;11.27;;
61785;SDS011;47692;53.714;11.372;2023-03-02T03:56:09;27.00;;;11.45;;
61785;SDS011;47692;53.714;11.372;2023-03-02T03:58:34;27.02;;;11.02;;
61785;SDS011;47692;53.714;11.372;2023-03-02T04:01:00;28.55;;;10.98;;
61785;SDS011;47692;53.714;11.372;2023-03-02T04:03:25;30.13;;;11.70;;
61785;SDS011;47692;53.714;11.372;2023-03-02T04:05:51;28.60;;;11.07;;
61785;SDS011;47692;53.714;11.372;2023-03-02T04:08:16;33.63;;;12.48;;
61785;SDS011;47692;53.714;11.372;2023-03-02T04:10:42;28.38;;;11.32;;
61785;SDS011;47692;53.714;11.372;2023-03-02T04:13:08;31.80;;;11.90;;
61785;SDS011;47692;53.714;11.372;2023-03-02T04:15:34;24.98;;;11.45;;
61785;SDS011;47692;53.714;11.372;2023-03-02T04:18:00;25.88;;;11.10;;
61785;SDS011;47692;53.714;11.372;2023-03-02T04:20:25;30.88;;;10.13;;
61785;SDS011;47692;53.714;11.372;2023-03-02T04:22:52;26.33;;;10.63;;
61785;SDS011;47692;53.714;11.372;2023-03-02T04:25:20;28.63;;;10.75;;
61785;SDS011;47692;53.714;11.372;2023-03-02T04:27:48;26.40;;;10.48;;
61785;SDS011;47692;53.714;11.372;2023-03-02T04:30:15;33.47;;;11.02;;
61785;SDS011;47692;53.714;11.372;2023-03-02T04:32:43;24.13;;;9.27;;
61785;SDS011;47692;53.714;11.372;2023-03-02T04:35:09;22.10;;;9.68;;
61785;SDS011;47692;53.714;11.372;2023-03-02T04:37:35;30.45;;;9.50;;
61785;SDS011;47692;53.714;11.372;2023-03-02T04:40:01;23.83;;;8.70;;
61785;SDS011;47692;53.714;11.372;2023-03-02T04:42:26;22.13;;;8.43;;
61785;SDS011;47692;53.714;11.372;2023-03-02T04:44:52;22.90;;;8.20;;
61785;SDS011;47692;53.714;11.372;2023-03-02T04:47:17;23.27;;;9.00;;
61785;SDS011;47692;53.714;11.372;2023-03-02T04:49:42;25.08;;;8.05;;
61785;SDS011;47692;53.714;11.372;2023-03-02T04:52:08;30.30;;;8.13;;
61785;SDS011;47692;53.714;11.372;2023-03-02T04:54:33;17.45;;;7.82;;
61785;SDS011;47692;53.714;11.372;2023-03-02T04:56:58;24.35;;;7.72;;
61785;SDS011;47692;53.714;11.372;2023-03-02T04:59:25;16.45;;;7.43;;
61785;SDS011;47692;53.714;11.372;2023-03-02T05:01:55;17.35;;;7.05;;
61785;SDS011;47692;53.714;11.372;2023-03-02T05:04:22;19.30;;;7.93;;
61785;SDS011;47692;53.714;11.372;2023-03-02T05:06:47;18.17;;;7.57;;
61785;SDS011;47692;53.714;11.372;2023-03-02T05:09:13;16.85;;;7.18;;
61785;SDS011;47692;53.714;11.372;2023-03-02T05:11:38;14.98;;;6.30;;
61785;SDS011;47692;53.714;11.372;2023-03-02T05:14:05;18.77;;;7.05;;
61785;SDS011;47692;53.714;11.372;2023-03-02T05:16:33;17.42;;;7.53;;
61785;SDS011;47692;53.714;11.372;2023-03-02T05:19:00;23.35;;;6.60;;
61785;SDS011;47692;53.714;11.372;2023-03-02T05:21:27;18.88;;;6.15;;
61785;SDS011;47692;53.714;11.372;2023-03-02T05:23:52;16.65;;;6.60;;
61785;SDS011;47692;53.714;11.372;2023-03-02T05:26:18;12.95;;;6.18;;
61785;SDS011;47692;53.714;11.372;2023-03-02T05:28:44;17.73;;;5.97;;
61785;SDS011;47692;53.714;11.372;2023-03-02T05:31:23;19.10;;;5.75;;
61785;SDS011;47692;53.714;11.372;2023-03-02T05:33:55;15.35;;;5.28;;
61785;SDS011;47692;53.714;11.372;2023-03-02T05:36:20;17.70;;;5.75;;
61785;SDS011;47692;53.714;11.372;2023-03-02T05:38:46;23.75;;;6.10;;
61785;SDS011;47692;53.714;11.372;2023-03-02T05:41:11;20.80;;;5.93;;
61785;SDS011;47692;53.714;11.372;2023-03-02T05:43:37;17.85;;;6.18;;
61785;SDS011;47692;53.714;11.372;2023-03-02T05:46:03;16.73;;;5.25;;
61785;SDS011;47692;53.714;11.372;2023-03-02T05:48:29;17.05;;;5.53;;
61785;SDS011;47692;53.714;11.372;2023-03-02T05:50:55;22.77;;;6.75;;
61785;SDS011;47692;53.714;11.372;2023-03-02T05:53:20;20.20;;;5.57;;
61785;SDS011;47692;53.714;11.372;2023-03-02T05:55:46;17.30;;;5.55;;
61785;SDS011;47692;53.714;11.372;2023-03-02T05:58:12;16.35;;;6.03;;
61785;SDS011;47692;53.714;11.372;2023-03-02T06:00:40;16.15;;;6.00;;
61785;SDS011;47692;53.714;11.372;2023-03-02T06:03:05;21.23;;;6.28;;
61785;SDS011;47692;53.714;11.372;2023-03-02T06:05:31;19.77;;;6.60;;
61785;SDS011;47692;53.714;11.372;2023-03-02T06:07:56;18.45;;;6.43;;
61785;SDS011;47692;53.714;11.372;2023-03-02T06:10:21;17.38;;;5.40;;
61785;SDS011;47692;53.714;11.372;2023-03-02T06:12:47;17.23;;;5.43;;
61785;SDS011;47692;53.714;11.372;2023-03-02T06:15:12;19.25;;;6.70;;
61785;SDS011;47692;53.714;11.372;2023-03-02T06:17:38;17.77;;;6.72;;
61785;SDS011;47692;53.714;11.372;2023-03-02T06:20:03;21.98;;;6.90;;
61785;SDS011;47692;53.714;11.372;2023-03-02T06:22:35;19.85;;;6.57;;
61785;SDS011;47692;53.714;11.372;2023-03-02T06:25:02;14.98;;;6.22;;
61785;SDS011;47692;53.714;11.372;2023-03-02T06:27:28;16.75;;;6.55;;
61785;SDS011;47692;53.714;11.372;2023-03-02T06:29:54;17.83;;;6.88;;
61785;SDS011;47692;53.714;11.372;2023-03-02T06:32:19;19.92;;;6.45;;
61785;SDS011;47692;53.714;11.372;2023-03-02T06:34:44;19.35;;;6.10;;
61785;SDS011;47692;53.714;11.372;2023-03-02T06:37:10;24.45;;;7.60;;
61785;SDS011;47692;53.714;11.372;2023-03-02T06:39:38;21.20;;;6.55;;
61785;SDS011;47692;53.714;11.372;2023-03-02T06:42:03;22.48;;;6.55;;
61785;SDS011;47692;53.714;11.372;2023-03-02T06:44:28;20.27;;;6.70;;
61785;SDS011;47692;53.714;11.372;2023-03-02T06:46:54;22.50;;;6.53;;
61785;SDS011;47692;53.714;11.372;2023-03-02T06:49:19;18.17;;;6.55;;
61785;SDS011;47692;53.714;11.372;2023-03-02T06:51:44;16.58;;;6.28;;
61785;SDS011;47692;53.714;11.372;2023-03-02T06:54:10;18.83;;;6.40;;
61785;SDS011;47692;53.714;11.372;2023-03-02T06:56:35;18.05;;;6.15;;
61785;SDS011;47692;53.714;11.372;2023-03-02T06:59:00;14.75;;;6.00;;
61785;SDS011;47692;53.714;11.372;2023-03-02T07:01:26;14.00;;;5.25;;
61785;SDS011;47692;53.714;11.372;2023-03-02T07:03:51;22.33;;;6.50;;
61785;SDS011;47692;53.714;11.372;2023-03-02T07:06:16;13.88;;;5.40;;
61785;SDS011;47692;53.714;11.372;2023-03-02T07:08:42;15.95;;;6.72;;
61785;SDS011;47692;53.714;11.372;2023-03-02T07:11:08;20.33;;;6.78;;
61785;SDS011;47692;53.714;11.372;2023-03-02T07:13:36;26.20;;;7.35;;
61785;SDS011;47692;53.714;11.372;2023-03-02T07:16:06;19.40;;;6.43;;
61785;SDS011;47692;53.714;11.372;2023-03-02T07:18:33;18.75;;;5.63;;
61785;SDS011;47692;53.714;11.372;2023-03-02T07:20:58;15.70;;;5.50;;
61785;SDS011;47692;53.714;11.372;2023-03-02T07:23:23;20.52;;;6.60;;
61785;SDS011;47692;53.714;11.372;2023-03-02T07:25:49;16.10;;;5.95;;
61785;SDS011;47692;53.714;11.372;2023-03-02T07:28:14;17.83;;;6.88;;
61785;SDS011;47692;53.714;11.372;2023-03-02T07:30:39;17.27;;;6.30;;
61785;SDS011;47692;53.714;11.372;2023-03-02T07:33:05;25.17;;;8.25;;
61785;SDS011;47692;53.714;11.372;2023-03-02T07:35:30;17.92;;;6.20;;
61785;SDS011;47692;53.714;11.372;2023-03-02T07:37:55;23.88;;;6.25;;
61785;SDS011;47692;53.714;11.372;2023-03-02T07:40:20;18.60;;;6.88;;
61785;SDS011;47692;53.714;11.372;2023-03-02T07:42:46;19.95;;;7.80;;
61785;SDS011;47692;53.714;11.372;2023-03-02T07:45:11;22.15;;;6.82;;
61785;SDS011;47692;53.714;11.372;2023-03-02T07:47:36;24.35;;;7.32;;
61785;SDS011;47692;53.714;11.372;2023-03-02T07:50:02;23.55;;;6.30;;
61785;SDS011;47692;53.714;11.372;2023-03-02T07:52:28;16.30;;;5.85;;
61785;SDS011;47692;53.714;11.372;2023-03-02T07:54:54;19.48;;;6.68;;
61785;SDS011;47692;53.714;11.372;2023-03-02T07:57:20;19.50;;;7.75;;
61785;SDS011;47692;53.714;11.372;2023-03-02T07:59:45;30.13;;;11.00;;
61785;SDS011;47692;53.714;11.372;2023-03-02T08:02:11;24.02;;;7.78;;
61785;SDS011;47692;53.714;11.372;2023-03-02T08:04:41;20.52;;;7.50;;
61785;SDS011;47692;53.714;11.372;2023-03-02T08:07:06;25.88;;;7.07;;
61785;SDS011;47692;53.714;11.372;2023-03-02T08:09:32;21.23;;;8.00;;
61785;SDS011;47692;53.714;11.372;2023-03-02T08:11:57;20.45;;;6.88;;
61785;SDS011;47692;53.714;11.372;2023-03-02T08:14:23;21.17;;;7.43;;
61785;SDS011;47692;53.714;11.372;2023-03-02T08:16:48;23.20;;;7.93;;
61785;SDS011;47692;53.714;11.372;2023-03-02T08:19:16;26.23;;;7.88;;
61785;SDS011;47692;53.714;11.372;2023-03-02T08:21:41;21.00;;;7.57;;
61785;SDS011;47692;53.714;11.372;2023-03-02T08:24:07;17.92;;;6.63;;
61785;SDS011;47692;53.714;11.372;2023-03-02T08:26:33;21.92;;;7.72;;
61785;SDS011;47692;53.714;11.372;2023-03-02T08:28:59;21.30;;;8.05;;
61785;SDS011;47692;53.714;11.372;2023-03-02T08:31:24;22.48;;;7.35;;
61785;SDS011;47692;53.714;11.372;2023-03-02T08:33:49;22.08;;;7.45;;
61785;SDS011;47692;53.714;11.372;2023-03-02T08:36:16;20.27;;;7.22;;
61785;SDS011;47692;53.714;11.372;2023-03-02T08:38:43;19.30;;;6.80;;
61785;SDS011;47692;53.714;11.372;2023-03-02T08:41:10;15.85;;;5.97;;
61785;SDS011;47692;53.714;11.372;2023-03-02T08:43:37;21.55;;;7.28;;
61785;SDS011;47692;53.714;11.372;2023-03-02T08:46:03;21.98;;;7.72;;
61785;SDS011;47692;53.714;11.372;2023-03-02T08:48:29;16.23;;;6.65;;
61785;SDS011;47692;53.714;11.372;2023-03-02T08:50:56;25.80;;;8.52;;
61785;SDS011;47692;53.714;11.372;2023-03-02T08:53:23;23.55;;;9.15;;
61785;SDS011;47692;53.714;11.372;2023-03-02T08:55:49;27.63;;;11.38;;
61785;SDS011;47692;53.714;11.372;2023-03-02T08:58:14;24.02;;;8.77;;
61785;SDS011;47692;53.714;11.372;2023-03-02T09:00:40;32.33;;;9.82;;
61785;SDS011;47692;53.714;11.372;2023-03-02T09:03:05;22.60;;;8.73;;
61785;SDS011;47692;53.714;11.372;2023-03-02T09:05:30;24.35;;;7.43;;
61785;SDS011;47692;53.714;11.372;2023-03-02T09:07:56;17.88;;;6.22;;
61785;SDS011;47692;53.714;11.372;2023-03-02T09:10:21;18.83;;;6.47;;
61785;SDS011;47692;53.714;11.372;2023-03-02T09:12:46;21.40;;;6.20;;
61785;SDS011;47692;53.714;11.372;2023-03-02T09:15:12;15.90;;;5.78;;
61785;SDS011;47692;53.714;11.372;2023-03-02T09:17:37;18.58;;;6.70;;
61785;SDS011;47692;53.714;11.372;2023-03-02T09:20:03;20.65;;;7.30;;
61785;SDS011;47692;53.714;11.372;2023-03-02T09:22:28;21.02;;;7.30;;
61785;SDS011;47692;53.714;11.372;2023-03-02T09:24:55;20.90;;;8.77;;
61785;SDS011;47692;53.714;11.372;2023-03-02T09:27:20;23.17;;;7.82;;
61785;SDS011;47692;53.714;11.372;2023-03-02T09:29:45;26.05;;;7.68;;
61785;SDS011;47692;53.714;11.372;2023-03-02T09:32:11;20.33;;;7.47;;
61785;SDS011;47692;53.714;11.372;2023-03-02T09:34:37;19.15;;;7.15;;
61785;SDS011;47692;53.714;11.372;2023-03-02T09:37:03;20.63;;;7.68;;
61785;SDS011;47692;53.714;11.372;2023-03-02T09:39:28;17.48;;;6.55;;
61785;SDS011;47692;53.714;11.372;2023-03-02T09:44:41;20.42;;;7.32;;
61785;SDS011;47692;53.714;11.372;2023-03-02T09:50:26;16.85;;;5.93;;
61785;SDS011;47692;53.714;11.372;2023-03-02T09:55:39;18.70;;;6.88;;
61785;SDS011;47692;53.714;11.372;2023-03-02T09:58:06;20.98;;;6.80;;
61785;SDS011;47692;53.714;11.372;2023-03-02T10:00:39;18.10;;;6.45;;
61785;SDS011;47692;53.714;11.372;2023-03-02T10:05:45;21.58;;;7.18;;
61785;SDS011;47692;53.714;11.372;2023-03-02T10:08:19;18.60;;;7.72;;
61785;SDS011;47692;53.714;11.372;2023-03-02T10:10:50;25.10;;;8.52;;
61785;SDS011;47692;53.714;11.372;2023-03-02T10:18:33;20.83;;;8.02;;
61785;SDS011;47692;53.714;11.372;2023-03-02T10:21:27;17.73;;;7.37;;
61785;SDS011;47692;53.714;11.372;2023-03-02T10:26:32;21.45;;;8.25;;
61785;SDS011;47692;53.714;11.372;2023-03-02T10:29:01;18.85;;;7.70;;
61785;SDS011;47692;53.714;11.372;2023-03-02T10:31:31;24.58;;;9.07;;
61785;SDS011;47692;53.714;11.372;2023-03-02T10:33:58;22.27;;;7.85;;
61785;SDS011;47692;53.714;11.372;2023-03-02T10:36:28;19.80;;;8.02;;
61785;SDS011;47692;53.714;11.372;2023-03-02T10:38:56;22.73;;;8.18;;
61785;SDS011;47692;53.714;11.372;2023-03-02T10:41:26;20.92;;;7.07;;
61785;SDS011;47692;53.714;11.372;2023-03-02T10:43:58;21.70;;;7.70;;
61785;SDS011;47692;53.714;11.372;2023-03-02T10:46:37;19.80;;;7.13;;
61785;SDS011;47692;53.714;11.372;2023-03-02T10:49:05;21.88;;;7.15;;
61785;SDS011;47692;53.714;11.372;2023-03-02T10:51:59;19.60;;;7.95;;
61785;SDS011;47692;53.714;11.372;2023-03-02T10:54:28;20.15;;;8.07;;
61785;SDS011;47692;53.714;11.372;2023-03-02T10:56:59;22.05;;;8.32;;
61785;SDS011;47692;53.714;11.372;2023-03-02T10:59:43;18.52;;;8.07;;
61785;SDS011;47692;53.714;11.372;2023-03-02T11:04:47;22.60;;;7.88;;
61785;SDS011;47692;53.714;11.372;2023-03-02T11:07:25;18.48;;;8.32;;
61785;SDS011;47692;53.714;11.372;2023-03-02T11:09:56;20.27;;;8.30;;
61785;SDS011;47692;53.714;11.372;2023-03-02T11:12:26;25.10;;;8.70;;
61785;SDS011;47692;53.714;11.372;2023-03-02T11:18:14;23.52;;;8.82;;
61785;SDS011;47692;53.714;11.372;2023-03-02T11:20:46;26.88;;;9.50;;
61785;SDS011;47692;53.714;11.372;2023-03-02T11:26:27;26.38;;;9.32;;
61785;SDS011;47692;53.714;11.372;2023-03-02T11:28:57;24.17;;;9.93;;
61785;SDS011;47692;53.714;11.372;2023-03-02T11:39:29;23.98;;;8.40;;
61785;SDS011;47692;53.714;11.372;2023-03-02T11:42:06;20.65;;;8.35;;
61785;SDS011;47692;53.714;11.372;2023-03-02T11:44:42;25.48;;;8.73;;
61785;SDS011;47692;53.714;11.372;2023-03-02T11:47:08;25.13;;;9.02;;
61785;SDS011;47692;53.714;11.372;2023-03-02T11:49:52;19.75;;;7.13;;
61785;SDS011;47692;53.714;11.372;2023-03-02T11:52:24;19.23;;;7.47;;
61785;SDS011;47692;53.714;11.372;2023-03-02T11:54:52;21.95;;;7.32;;
61785;SDS011;47692;53.714;11.372;2023-03-02T11:57:26;22.25;;;7.60;;
61785;SDS011;47692;53.714;11.372;2023-03-02T11:59:55;21.98;;;7.43;;
61785;SDS011;47692;53.714;11.372;2023-03-02T12:02:22;26.90;;;7.35;;
61785;SDS011;47692;53.714;11.372;2023-03-02T12:04:48;22.60;;;7.45;;
61785;SDS011;47692;53.714;11.372;2023-03-02T12:07:21;16.55;;;7.30;;
61785;SDS011;47692;53.714;11.372;2023-03-02T12:09:56;25.75;;;7.07;;
61785;SDS011;47692;53.714;11.372;2023-03-02T12:12:32;20.83;;;7.68;;
61785;SDS011;47692;53.714;11.372;2023-03-02T12:15:02;14.43;;;6.22;;
61785;SDS011;47692;53.714;11.372;2023-03-02T12:17:48;19.42;;;6.93;;
61785;SDS011;47692;53.714;11.372;2023-03-02T12:20:24;20.67;;;7.45;;
61785;SDS011;47692;53.714;11.372;2023-03-02T12:22:53;19.00;;;7.68;;
61785;SDS011;47692;53.714;11.372;2023-03-02T12:25:40;17.63;;;7.80;;
61785;SDS011;47692;53.714;11.372;2023-03-02T12:28:30;19.42;;;7.18;;
61785;SDS011;47692;53.714;11.372;2023-03-02T12:31:03;16.90;;;6.75;;
61785;SDS011;47692;53.714;11.372;2023-03-02T12:33:39;17.60;;;6.68;;
61785;SDS011;47692;53.714;11.372;2023-03-02T12:36:13;22.42;;;6.72;;
61785;SDS011;47692;53.714;11.372;2023-03-02T12:38:43;19.45;;;7.13;;
61785;SDS011;47692;53.714;11.372;2023-03-02T12:41:35;21.67;;;7.45;;
61785;SDS011;47692;53.714;11.372;2023-03-02T12:44:12;19.13;;;6.55;;
61785;SDS011;47692;53.714;11.372;2023-03-02T12:46:45;24.20;;;7.68;;
61785;SDS011;47692;53.714;11.372;2023-03-02T12:52:19;16.15;;;6.55;;
61785;SDS011;47692;53.714;11.372;2023-03-02T12:57:31;16.17;;;6.60;;
61785;SDS011;47692;53.714;11.372;2023-03-02T13:00:00;19.17;;;6.65;;
61785;SDS011;47692;53.714;11.372;2023-03-02T13:02:28;18.13;;;7.72;;
61785;SDS011;47692;53.714;11.372;2023-03-02T13:05:00;14.75;;;6.13;;
61785;SDS011;47692;53.714;11.372;2023-03-02T13:07:29;22.13;;;6.80;;
61785;SDS011;47692;53.714;11.372;2023-03-02T13:10:00;18.90;;;6.70;;
61785;SDS011;47692;53.714;11.372;2023-03-02T13:12:30;21.58;;;7.18;;
61785;SDS011;47692;53.714;11.372;2023-03-02T13:14:57;20.80;;;7.10;;
61785;SDS011;47692;53.714;11.372;2023-03-02T13:19:54;20.55;;;7.13;;
61785;SDS011;47692;53.714;11.372;2023-03-02T13:22:24;18.95;;;7.38;;
61785;SDS011;47692;53.714;11.372;2023-03-02T13:27:29;18.88;;;6.82;;
61785;SDS011;47692;53.714;11.372;2023-03-02T13:29:55;19.15;;;6.88;;
61785;SDS011;47692;53.714;11.372;2023-03-02T13:32:35;21.20;;;7.10;;
61785;SDS011;47692;53.714;11.372;2023-03-02T13:38:13;18.25;;;6.15;;
61785;SDS011;47692;53.714;11.372;2023-03-02T13:40:43;16.33;;;6.88;;
61785;SDS011;47692;53.714;11.372;2023-03-02T13:46:01;14.00;;;5.90;;
61785;SDS011;47692;53.714;11.372;2023-03-02T13:48:52;15.80;;;6.32;;
61785;SDS011;47692;53.714;11.372;2023-03-02T13:51:18;17.77;;;6.43;;
61785;SDS011;47692;53.714;11.372;2023-03-02T13:53:52;18.30;;;7.00;;
61785;SDS011;47692;53.714;11.372;2023-03-02T13:56:21;19.50;;;6.43;;
61785;SDS011;47692;53.714;11.372;2023-03-02T13:59:07;15.80;;;5.95;;
61785;SDS011;47692;53.714;11.372;2023-03-02T14:01:36;17.27;;;6.30;;
61785;SDS011;47692;53.714;11.372;2023-03-02T14:04:02;19.25;;;6.10;;
61785;SDS011;47692;53.714;11.372;2023-03-02T14:06:27;18.13;;;7.05;;
61785;SDS011;47692;53.714;11.372;2023-03-02T14:08:52;18.08;;;7.15;;
61785;SDS011;47692;53.714;11.372;2023-03-02T14:11:18;17.25;;;7.03;;
61785;SDS011;47692;53.714;11.372;2023-03-02T14:13:48;16.48;;;6.72;;
61785;SDS011;47692;53.714;11.372;2023-03-02T14:16:19;16.35;;;6.63;;
61785;SDS011;47692;53.714;11.372;2023-03-02T14:18:45;18.20;;;6.78;;
61785;SDS011;47692;53.714;11.372;2023-03-02T14:21:13;14.05;;;5.93;;
61785;SDS011;47692;53.714;11.372;2023-03-02T14:23:43;18.05;;;7.43;;
61785;SDS011;47692;53.714;11.372;2023-03-02T14:28:56;15.30;;;6.43;;
61785;SDS011;47692;53.714;11.372;2023-03-02T14:31:23;19.17;;;7.22;;
61785;SDS011;47692;53.714;11.372;2023-03-02T14:33:49;22.58;;;7.38;;
61785;SDS011;47692;53.714;11.372;2023-03-02T14:36:17;18.80;;;7.10;;
61785;SDS011;47692;53.714;11.372;2023-03-02T14:38:46;14.57;;;6.28;;
61785;SDS011;47692;53.714;11.372;2023-03-02T14:41:12;15.55;;;6.72;;
61785;SDS011;47692;53.714;11.372;2023-03-02T14:43:46;18.52;;;6.75;;
61785;SDS011;47692;53.714;11.372;2023-03-02T14:46:12;15.05;;;7.70;;
61785;SDS011;47692;53.714;11.372;2023-03-02T14:48:38;19.00;;;6.95;;
61785;SDS011;47692;53.714;11.372;2023-03-02T14:51:03;13.20;;;6.10;;
61785;SDS011;47692;53.714;11.372;2023-03-02T14:53:30;15.02;;;6.97;;
61785;SDS011;47692;53.714;11.372;2023-03-02T14:55:58;13.55;;;6.05;;
61785;SDS011;47692;53.714;11.372;2023-03-02T14:58:29;25.60;;;9.13;;
61785;SDS011;47692;53.714;11.372;2023-03-02T15:00:56;20.67;;;8.23;;
61785;SDS011;47692;53.714;11.372;2023-03-02T15:03:22;19.13;;;7.13;;
61785;SDS011;47692;53.714;11.372;2023-03-02T15:05:49;32.25;;;11.38;;
61785;SDS011;47692;53.714;11.372;2023-03-02T15:08:15;36.78;;;11.00;;
61785;SDS011;47692;53.714;11.372;2023-03-02T15:10:41;25.17;;;9.90;;
61785;SDS011;47692;53.714;11.372;2023-03-02T15:13:10;20.25;;;7.63;;
61785;SDS011;47692;53.714;11.372;2023-03-02T15:15:37;17.20;;;7.10;;
61785;SDS011;47692;53.714;11.372;2023-03-02T15:18:03;15.18;;;7.43;;
61785;SDS011;47692;53.714;11.372;2023-03-02T15:20:29;12.80;;;6.47;;
61785;SDS011;47692;53.714;11.372;2023-03-02T15:22:54;16.20;;;7.45;;